sensor_id;sensor_type;location;lat;lon;timestamp;temperature;humidity
57282;DHT22;43129;52.628;10.098;2023-07-30T00:00:52;17.00;99.90
57282;DHT22;43129;52.628;10.098;2023-07-30T00:03:17;16.90;99.90
57282;DHT22;43129;52.628;10.098;2023-07-30T00:05:52;16.90;99.90
57282;DHT22;43129;52.628;10.098;2023-07-30T00:08:17;16.80;99.90
57282;DHT22;43129;52.628;10.098;2023-07-30T00:10:43;16.70;99.90
57282;DHT22;43129;52.628;10.098;2023-07-30T00:13:08;16.70;99.90
57282;DHT22;43129;52.628;10.098;2023-07-30T00:15:34;16.60;99.90
57282;DHT22;43129;52.628;10.098;2023-07-30T00:17:59;16.60;99.90
57282;DHT22;43129;52.628;10.098;2023-07-30T00:20:25;16.60;99.90
57282;DHT22;43129;52.628;10.098;2023-07-30T00:22:51;16.50;99.90
57282;DHT22;43129;52.628;10.098;2023-07-30T00:25:16;16.50;99.90
57282;DHT22;43129;52.628;10.098;2023-07-30T00:27:42;16.60;99.90
57282;DHT22;43129;52.628;10.098;2023-07-30T00:30:10;16.50;99.90
57282;DHT22;43129;52.628;10.098;2023-07-30T00:32:36;16.50;99.90
57282;DHT22;43129;52.628;10.098;2023-07-30T00:35:06;16.50;99.90
57282;DHT22;43129;52.628;10.098;2023-07-30T00:37:34;16.40;99.90
57282;DHT22;43129;52.628;10.098;2023-07-30T00:40:00;16.40;99.90
57282;DHT22;43129;52.628;10.098;2023-07-30T00:42:25;16.40;99.90
57282;DHT22;43129;52.628;10.098;2023-07-30T00:44:56;16.30;99.90
57282;DHT22;43129;52.628;10.098;2023-07-30T00:47:22;16.30;99.90
57282;DHT22;43129;52.628;10.098;2023-07-30T00:49:48;16.30;99.90
57282;DHT22;43129;52.628;10.098;2023-07-30T00:52:18;16.40;99.90
57282;DHT22;43129;52.628;10.098;2023-07-30T00:54:54;16.30;99.90
57282;DHT22;43129;52.628;10.098;2023-07-30T00:57:25;16.40;99.90
57282;DHT22;43129;52.628;10.098;2023-07-30T00:59:52;16.30;99.90
57282;DHT22;43129;52.628;10.098;2023-07-30T01:02:21;16.30;99.90
57282;DHT22;43129;52.628;10.098;2023-07-30T01:04:47;16.30;99.90
57282;DHT22;43129;52.628;10.098;2023-07-30T01:07:14;16.20;99.90
57282;DHT22;43129;52.628;10.098;2023-07-30T01:09:42;16.30;99.90
57282;DHT22;43129;52.628;10.098;2023-07-30T01:12:08;16.40;99.90
57282;DHT22;43129;52.628;10.098;2023-07-30T01:14:35;16.40;99.90
57282;DHT22;43129;52.628;10.098;2023-07-30T01:17:04;16.40;99.90
57282;DHT22;43129;52.628;10.098;2023-07-30T01:19:30;16.40;99.90
57282;DHT22;43129;52.628;10.098;2023-07-30T01:21:56;16.50;99.90
57282;DHT22;43129;52.628;10.098;2023-07-30T01:24:22;16.50;99.90
57282;DHT22;43129;52.628;10.098;2023-07-30T01:27:00;16.50;99.90
57282;DHT22;43129;52.628;10.098;2023-07-30T01:32:13;16.50;99.90
57282;DHT22;43129;52.628;10.098;2023-07-30T01:34:40;16.50;99.90
57282;DHT22;43129;52.628;10.098;2023-07-30T01:37:10;16.40;99.90
57282;DHT22;43129;52.628;10.098;2023-07-30T01:39:38;16.30;99.90
57282;DHT22;43129;52.628;10.098;2023-07-30T01:42:05;16.20;99.90
57282;DHT22;43129;52.628;10.098;2023-07-30T01:44:30;16.30;99.90
57282;DHT22;43129;52.628;10.098;2023-07-30T01:46:58;16.20;99.90
57282;DHT22;43129;52.628;10.098;2023-07-30T01:49:24;16.20;99.90
57282;DHT22;43129;52.628;10.098;2023-07-30T01:51:52;16.20;99.90
57282;DHT22;43129;52.628;10.098;2023-07-30T01:54:17;16.10;99.90
57282;DHT22;43129;52.628;10.098;2023-07-30T01:56:43;16.10;99.90
57282;DHT22;43129;52.628;10.098;2023-07-30T01:59:11;16.10;99.90
57282;DHT22;43129;52.628;10.098;2023-07-30T02:01:37;16.10;99.90
57282;DHT22;43129;52.628;10.098;2023-07-30T02:04:02;16.10;99.90
57282;DHT22;43129;52.628;10.098;2023-07-30T02:06:28;16.10;99.90
57282;DHT22;43129;52.628;10.098;2023-07-30T02:08:53;16.10;99.90
57282;DHT22;43129;52.628;10.098;2023-07-30T02:11:19;16.10;99.90
57282;DHT22;43129;52.628;10.098;2023-07-30T02:13:44;16.10;99.90
57282;DHT22;43129;52.628;10.098;2023-07-30T02:16:12;16.10;99.90
57282;DHT22;43129;52.628;10.098;2023-07-30T02:18:38;16.00;99.90
57282;DHT22;43129;52.628;10.098;2023-07-30T02:21:04;16.00;99.90
57282;DHT22;43129;52.628;10.098;2023-07-30T02:23:34;16.00;99.90
57282;DHT22;43129;52.628;10.098;2023-07-30T02:25:59;15.90;99.90
57282;DHT22;43129;52.628;10.098;2023-07-30T02:28:25;15.90;99.90
57282;DHT22;43129;52.628;10.098;2023-07-30T02:30:51;15.90;99.90
57282;DHT22;43129;52.628;10.098;2023-07-30T02:33:16;15.90;99.90
57282;DHT22;43129;52.628;10.098;2023-07-30T02:35:44;15.90;99.90
57282;DHT22;43129;52.628;10.098;2023-07-30T02:38:12;15.80;99.90
57282;DHT22;43129;52.628;10.098;2023-07-30T02:40:38;15.70;99.90
57282;DHT22;43129;52.628;10.098;2023-07-30T02:43:04;15.70;99.90
57282;DHT22;43129;52.628;10.098;2023-07-30T02:45:34;15.70;99.90
57282;DHT22;43129;52.628;10.098;2023-07-30T02:48:00;15.70;99.90
57282;DHT22;43129;52.628;10.098;2023-07-30T02:50:25;15.70;99.90
57282;DHT22;43129;52.628;10.098;2023-07-30T02:52:51;15.70;99.90
57282;DHT22;43129;52.628;10.098;2023-07-30T02:55:17;15.80;99.90
57282;DHT22;43129;52.628;10.098;2023-07-30T02:57:42;15.80;99.90
57282;DHT22;43129;52.628;10.098;2023-07-30T03:00:08;15.80;99.90
57282;DHT22;43129;52.628;10.098;2023-07-30T03:02:34;15.80;99.90
57282;DHT22;43129;52.628;10.098;2023-07-30T03:05:02;15.80;99.90
57282;DHT22;43129;52.628;10.098;2023-07-30T03:07:28;15.90;99.90
57282;DHT22;43129;52.628;10.098;2023-07-30T03:09:53;15.80;99.90
57282;DHT22;43129;52.628;10.098;2023-07-30T03:12:21;15.90;99.90
57282;DHT22;43129;52.628;10.098;2023-07-30T03:14:49;15.90;99.90
57282;DHT22;43129;52.628;10.098;2023-07-30T03:17:17;15.90;99.90
57282;DHT22;43129;52.628;10.098;2023-07-30T03:19:43;15.90;99.90
57282;DHT22;43129;52.628;10.098;2023-07-30T03:22:08;15.90;99.90
57282;DHT22;43129;52.628;10.098;2023-07-30T03:24:34;15.90;99.90
57282;DHT22;43129;52.628;10.098;2023-07-30T03:27:02;15.80;99.90
57282;DHT22;43129;52.628;10.098;2023-07-30T03:29:28;15.80;99.90
57282;DHT22;43129;52.628;10.098;2023-07-30T03:31:57;15.80;99.90
57282;DHT22;43129;52.628;10.098;2023-07-30T03:34:23;15.80;99.90
57282;DHT22;43129;52.628;10.098;2023-07-30T03:36:51;15.80;99.90
57282;DHT22;43129;52.628;10.098;2023-07-30T03:39:19;15.90;99.90
57282;DHT22;43129;52.628;10.098;2023-07-30T03:41:44;15.90;99.90
57282;DHT22;43129;52.628;10.098;2023-07-30T03:44:10;15.90;99.90
57282;DHT22;43129;52.628;10.098;2023-07-30T03:46:38;15.90;99.90
57282;DHT22;43129;52.628;10.098;2023-07-30T03:49:08;15.90;99.90
57282;DHT22;43129;52.628;10.098;2023-07-30T03:51:36;15.90;99.90
57282;DHT22;43129;52.628;10.098;2023-07-30T03:54:04;15.90;99.90
57282;DHT22;43129;52.628;10.098;2023-07-30T03:56:32;15.90;99.90
57282;DHT22;43129;52.628;10.098;2023-07-30T03:59:00;15.90;99.90
57282;DHT22;43129;52.628;10.098;2023-07-30T04:01:30;15.90;99.90
57282;DHT22;43129;52.628;10.098;2023-07-30T04:03:58;15.90;99.90
57282;DHT22;43129;52.628;10.098;2023-07-30T04:06:26;15.90;99.90
57282;DHT22;43129;52.628;10.098;2023-07-30T04:08:54;15.90;99.90
57282;DHT22;43129;52.628;10.098;2023-07-30T04:11:19;15.90;99.90
57282;DHT22;43129;52.628;10.098;2023-07-30T04:13:47;15.90;99.90
57282;DHT22;43129;52.628;10.098;2023-07-30T04:16:15;15.90;99.90
57282;DHT22;43129;52.628;10.098;2023-07-30T04:18:43;15.90;99.90
57282;DHT22;43129;52.628;10.098;2023-07-30T04:21:11;15.90;99.90
57282;DHT22;43129;52.628;10.098;2023-07-30T04:23:36;15.90;99.90
57282;DHT22;43129;52.628;10.098;2023-07-30T04:26:04;16.00;99.90
57282;DHT22;43129;52.628;10.098;2023-07-30T04:28:32;15.90;99.90
57282;DHT22;43129;52.628;10.098;2023-07-30T04:30:58;15.90;99.90
57282;DHT22;43129;52.628;10.098;2023-07-30T04:33:26;16.00;99.90
57282;DHT22;43129;52.628;10.098;2023-07-30T04:35:52;16.00;99.90
57282;DHT22;43129;52.628;10.098;2023-07-30T04:38:20;16.00;99.90
57282;DHT22;43129;52.628;10.098;2023-07-30T04:40:45;16.00;99.90
57282;DHT22;43129;52.628;10.098;2023-07-30T04:43:13;16.00;99.90
57282;DHT22;43129;52.628;10.098;2023-07-30T04:45:42;16.00;99.90
57282;DHT22;43129;52.628;10.098;2023-07-30T04:48:08;16.00;99.90
57282;DHT22;43129;52.628;10.098;2023-07-30T04:50:33;16.10;99.90
57282;DHT22;43129;52.628;10.098;2023-07-30T04:53:02;16.10;99.90
57282;DHT22;43129;52.628;10.098;2023-07-30T04:55:30;16.00;99.90
57282;DHT22;43129;52.628;10.098;2023-07-30T04:57:56;16.10;99.90
57282;DHT22;43129;52.628;10.098;2023-07-30T05:00:21;16.10;99.90
57282;DHT22;43129;52.628;10.098;2023-07-30T05:02:47;16.20;99.90
57282;DHT22;43129;52.628;10.098;2023-07-30T05:05:15;16.20;99.90
57282;DHT22;43129;52.628;10.098;2023-07-30T05:07:41;16.20;99.90
57282;DHT22;43129;52.628;10.098;2023-07-30T05:10:09;16.30;99.90
57282;DHT22;43129;52.628;10.098;2023-07-30T05:12:37;16.30;99.90
57282;DHT22;43129;52.628;10.098;2023-07-30T05:15:06;16.30;99.90
57282;DHT22;43129;52.628;10.098;2023-07-30T05:17:36;16.40;99.90
57282;DHT22;43129;52.628;10.098;2023-07-30T05:20:02;16.40;99.90
57282;DHT22;43129;52.628;10.098;2023-07-30T05:22:28;16.40;99.90
57282;DHT22;43129;52.628;10.098;2023-07-30T05:24:55;16.50;99.90
57282;DHT22;43129;52.628;10.098;2023-07-30T05:27:22;16.60;99.90
57282;DHT22;43129;52.628;10.098;2023-07-30T05:29:47;16.60;99.90
57282;DHT22;43129;52.628;10.098;2023-07-30T05:32:16;16.80;99.90
57282;DHT22;43129;52.628;10.098;2023-07-30T05:34:41;16.80;99.90
57282;DHT22;43129;52.628;10.098;2023-07-30T05:37:07;16.80;99.90
57282;DHT22;43129;52.628;10.098;2023-07-30T05:39:33;16.90;99.90
57282;DHT22;43129;52.628;10.098;2023-07-30T05:42:01;16.90;99.90
57282;DHT22;43129;52.628;10.098;2023-07-30T05:44:31;16.90;99.90
57282;DHT22;43129;52.628;10.098;2023-07-30T05:46:59;17.00;99.90
57282;DHT22;43129;52.628;10.098;2023-07-30T05:49:29;17.00;99.90
57282;DHT22;43129;52.628;10.098;2023-07-30T05:51:55;17.00;99.90
57282;DHT22;43129;52.628;10.098;2023-07-30T05:54:20;17.00;99.90
57282;DHT22;43129;52.628;10.098;2023-07-30T05:56:46;17.00;99.90
57282;DHT22;43129;52.628;10.098;2023-07-30T05:59:11;17.10;99.90
57282;DHT22;43129;52.628;10.098;2023-07-30T06:01:38;17.10;99.90
57282;DHT22;43129;52.628;10.098;2023-07-30T06:04:04;17.20;99.90
57282;DHT22;43129;52.628;10.098;2023-07-30T06:06:32;17.20;99.90
57282;DHT22;43129;52.628;10.098;2023-07-30T06:09:00;17.20;99.90
57282;DHT22;43129;52.628;10.098;2023-07-30T06:11:26;17.30;99.90
57282;DHT22;43129;52.628;10.098;2023-07-30T06:13:54;17.40;99.90
57282;DHT22;43129;52.628;10.098;2023-07-30T06:16:21;17.40;99.90
57282;DHT22;43129;52.628;10.098;2023-07-30T06:18:47;17.60;99.90
57282;DHT22;43129;52.628;10.098;2023-07-30T06:21:15;17.60;99.90
57282;DHT22;43129;52.628;10.098;2023-07-30T06:23:45;17.70;99.90
57282;DHT22;43129;52.628;10.098;2023-07-30T06:26:11;17.90;99.90
57282;DHT22;43129;52.628;10.098;2023-07-30T06:28:39;18.00;99.90
57282;DHT22;43129;52.628;10.098;2023-07-30T06:31:05;18.10;99.90
57282;DHT22;43129;52.628;10.098;2023-07-30T06:33:30;18.20;99.90
57282;DHT22;43129;52.628;10.098;2023-07-30T06:35:58;18.20;99.90
57282;DHT22;43129;52.628;10.098;2023-07-30T06:38:26;18.30;99.90
57282;DHT22;43129;52.628;10.098;2023-07-30T06:40:52;18.30;99.90
57282;DHT22;43129;52.628;10.098;2023-07-30T06:43:17;18.40;99.90
57282;DHT22;43129;52.628;10.098;2023-07-30T06:45:43;18.50;99.90
57282;DHT22;43129;52.628;10.098;2023-07-30T06:48:09;18.60;99.90
57282;DHT22;43129;52.628;10.098;2023-07-30T06:50:39;18.70;99.90
57282;DHT22;43129;52.628;10.098;2023-07-30T06:53:08;18.80;99.90
57282;DHT22;43129;52.628;10.098;2023-07-30T06:55:33;18.90;99.90
57282;DHT22;43129;52.628;10.098;2023-07-30T06:58:01;19.00;99.90
57282;DHT22;43129;52.628;10.098;2023-07-30T07:00:31;19.10;99.90
57282;DHT22;43129;52.628;10.098;2023-07-30T07:03:00;19.20;99.90
57282;DHT22;43129;52.628;10.098;2023-07-30T07:05:25;19.30;99.90
57282;DHT22;43129;52.628;10.098;2023-07-30T07:07:53;19.40;99.90
57282;DHT22;43129;52.628;10.098;2023-07-30T07:10:19;19.30;99.90
57282;DHT22;43129;52.628;10.098;2023-07-30T07:12:44;19.30;99.90
57282;DHT22;43129;52.628;10.098;2023-07-30T07:15:15;19.40;99.90
57282;DHT22;43129;52.628;10.098;2023-07-30T07:17:43;19.70;99.90
57282;DHT22;43129;52.628;10.098;2023-07-30T07:20:13;20.10;99.90
57282;DHT22;43129;52.628;10.098;2023-07-30T07:22:43;20.30;99.90
57282;DHT22;43129;52.628;10.098;2023-07-30T07:25:08;20.50;99.90
57282;DHT22;43129;52.628;10.098;2023-07-30T07:27:34;20.80;99.90
57282;DHT22;43129;52.628;10.098;2023-07-30T07:30:02;20.80;99.90
57282;DHT22;43129;52.628;10.098;2023-07-30T07:32:28;20.70;99.90
57282;DHT22;43129;52.628;10.098;2023-07-30T07:34:58;20.70;99.90
57282;DHT22;43129;52.628;10.098;2023-07-30T07:37:24;20.70;99.90
57282;DHT22;43129;52.628;10.098;2023-07-30T07:39:49;21.10;99.90
57282;DHT22;43129;52.628;10.098;2023-07-30T07:42:17;21.50;99.40
57282;DHT22;43129;52.628;10.098;2023-07-30T07:44:45;21.70;98.10
57282;DHT22;43129;52.628;10.098;2023-07-30T07:47:14;21.60;96.50
57282;DHT22;43129;52.628;10.098;2023-07-30T07:49:39;21.80;96.30
57282;DHT22;43129;52.628;10.098;2023-07-30T07:52:05;22.00;95.70
57282;DHT22;43129;52.628;10.098;2023-07-30T07:54:34;21.90;94.90
57282;DHT22;43129;52.628;10.098;2023-07-30T07:57:02;21.50;96.30
57282;DHT22;43129;52.628;10.098;2023-07-30T07:59:29;21.80;94.90
57282;DHT22;43129;52.628;10.098;2023-07-30T08:01:55;21.70;94.60
57282;DHT22;43129;52.628;10.098;2023-07-30T08:04:23;21.80;93.90
57282;DHT22;43129;52.628;10.098;2023-07-30T08:06:49;21.80;93.20
57282;DHT22;43129;52.628;10.098;2023-07-30T08:09:14;22.20;92.20
57282;DHT22;43129;52.628;10.098;2023-07-30T08:11:44;22.00;91.10
57282;DHT22;43129;52.628;10.098;2023-07-30T08:14:10;21.50;91.90
57282;DHT22;43129;52.628;10.098;2023-07-30T08:16:36;21.40;92.80
57282;DHT22;43129;52.628;10.098;2023-07-30T08:19:02;21.50;92.90
57282;DHT22;43129;52.628;10.098;2023-07-30T08:21:29;21.60;92.20
57282;DHT22;43129;52.628;10.098;2023-07-30T08:23:55;21.40;91.80
57282;DHT22;43129;52.628;10.098;2023-07-30T08:26:23;21.10;93.40
57282;DHT22;43129;52.628;10.098;2023-07-30T08:28:49;21.20;94.20
57282;DHT22;43129;52.628;10.098;2023-07-30T08:31:14;21.40;93.30
57282;DHT22;43129;52.628;10.098;2023-07-30T08:33:42;21.50;92.30
57282;DHT22;43129;52.628;10.098;2023-07-30T08:36:08;21.70;91.60
57282;DHT22;43129;52.628;10.098;2023-07-30T08:38:34;21.70;91.40
57282;DHT22;43129;52.628;10.098;2023-07-30T08:41:02;22.00;91.30
57282;DHT22;43129;52.628;10.098;2023-07-30T08:43:28;22.00;91.60
57282;DHT22;43129;52.628;10.098;2023-07-30T08:45:54;21.90;91.30
57282;DHT22;43129;52.628;10.098;2023-07-30T08:48:20;22.10;92.00
57282;DHT22;43129;52.628;10.098;2023-07-30T08:50:47;22.30;90.70
57282;DHT22;43129;52.628;10.098;2023-07-30T08:53:16;22.50;87.90
57282;DHT22;43129;52.628;10.098;2023-07-30T08:55:46;22.20;88.70
57282;DHT22;43129;52.628;10.098;2023-07-30T08:58:12;22.20;87.80
57282;DHT22;43129;52.628;10.098;2023-07-30T09:00:41;22.70;86.80
57282;DHT22;43129;52.628;10.098;2023-07-30T09:03:10;22.50;85.80
57282;DHT22;43129;52.628;10.098;2023-07-30T09:05:44;22.60;85.00
57282;DHT22;43129;52.628;10.098;2023-07-30T09:08:12;23.00;84.20
57282;DHT22;43129;52.628;10.098;2023-07-30T09:10:40;22.80;85.20
57282;DHT22;43129;52.628;10.098;2023-07-30T09:13:08;22.70;86.10
57282;DHT22;43129;52.628;10.098;2023-07-30T09:15:37;23.20;83.80
57282;DHT22;43129;52.628;10.098;2023-07-30T09:18:04;23.40;82.70
57282;DHT22;43129;52.628;10.098;2023-07-30T09:20:42;23.50;81.70
57282;DHT22;43129;52.628;10.098;2023-07-30T09:23:11;23.50;81.10
57282;DHT22;43129;52.628;10.098;2023-07-30T09:25:39;23.30;83.00
57282;DHT22;43129;52.628;10.098;2023-07-30T09:28:08;23.70;82.90
57282;DHT22;43129;52.628;10.098;2023-07-30T09:30:36;22.80;84.90
57282;DHT22;43129;52.628;10.098;2023-07-30T09:33:04;23.40;85.00
57282;DHT22;43129;52.628;10.098;2023-07-30T09:35:33;23.20;84.30
57282;DHT22;43129;52.628;10.098;2023-07-30T09:38:02;23.10;86.80
57282;DHT22;43129;52.628;10.098;2023-07-30T09:40:32;23.10;87.40
57282;DHT22;43129;52.628;10.098;2023-07-30T09:42:58;22.80;89.10
57282;DHT22;43129;52.628;10.098;2023-07-30T09:45:25;22.60;90.00
57282;DHT22;43129;52.628;10.098;2023-07-30T09:47:53;22.50;90.70
57282;DHT22;43129;52.628;10.098;2023-07-30T09:50:21;22.90;90.00
57282;DHT22;43129;52.628;10.098;2023-07-30T09:52:49;23.00;90.60
57282;DHT22;43129;52.628;10.098;2023-07-30T09:55:18;22.80;90.20
57282;DHT22;43129;52.628;10.098;2023-07-30T09:57:49;22.60;90.10
57282;DHT22;43129;52.628;10.098;2023-07-30T10:00:14;22.90;87.80
57282;DHT22;43129;52.628;10.098;2023-07-30T10:02:45;22.90;89.10
57282;DHT22;43129;52.628;10.098;2023-07-30T10:05:17;23.30;88.40
57282;DHT22;43129;52.628;10.098;2023-07-30T10:07:58;23.60;85.60
57282;DHT22;43129;52.628;10.098;2023-07-30T10:10:25;23.30;85.60
57282;DHT22;43129;52.628;10.098;2023-07-30T10:12:55;23.50;86.10
57282;DHT22;43129;52.628;10.098;2023-07-30T10:15:23;23.20;86.40
57282;DHT22;43129;52.628;10.098;2023-07-30T10:17:52;22.90;88.10
57282;DHT22;43129;52.628;10.098;2023-07-30T10:20:24;23.00;88.20
57282;DHT22;43129;52.628;10.098;2023-07-30T10:22:57;23.20;88.90
57282;DHT22;43129;52.628;10.098;2023-07-30T10:25:42;23.10;87.20
57282;DHT22;43129;52.628;10.098;2023-07-30T10:28:08;22.70;88.70
57282;DHT22;43129;52.628;10.098;2023-07-30T10:30:34;22.30;91.10
57282;DHT22;43129;52.628;10.098;2023-07-30T10:33:04;22.10;92.30
57282;DHT22;43129;52.628;10.098;2023-07-30T10:35:43;22.10;91.40
57282;DHT22;43129;52.628;10.098;2023-07-30T10:38:17;22.40;90.90
57282;DHT22;43129;52.628;10.098;2023-07-30T10:41:07;22.90;87.90
57282;DHT22;43129;52.628;10.098;2023-07-30T10:46:16;22.90;87.30
57282;DHT22;43129;52.628;10.098;2023-07-30T10:48:44;22.70;87.80
57282;DHT22;43129;52.628;10.098;2023-07-30T10:51:14;22.60;89.80
57282;DHT22;43129;52.628;10.098;2023-07-30T10:53:47;22.20;90.40
57282;DHT22;43129;52.628;10.098;2023-07-30T10:56:16;21.80;91.90
57282;DHT22;43129;52.628;10.098;2023-07-30T10:58:42;21.60;93.60
57282;DHT22;43129;52.628;10.098;2023-07-30T11:01:09;21.50;93.60
57282;DHT22;43129;52.628;10.098;2023-07-30T11:03:37;21.30;94.30
57282;DHT22;43129;52.628;10.098;2023-07-30T11:06:04;21.20;95.50
57282;DHT22;43129;52.628;10.098;2023-07-30T11:08:37;21.40;95.40
57282;DHT22;43129;52.628;10.098;2023-07-30T11:11:04;21.80;94.30
57282;DHT22;43129;52.628;10.098;2023-07-30T11:13:38;21.80;93.10
57282;DHT22;43129;52.628;10.098;2023-07-30T11:16:05;22.00;93.00
57282;DHT22;43129;52.628;10.098;2023-07-30T11:18:35;22.60;92.60
57282;DHT22;43129;52.628;10.098;2023-07-30T11:23:29;22.80;91.00
57282;DHT22;43129;52.628;10.098;2023-07-30T11:25:57;22.70;91.10
57282;DHT22;43129;52.628;10.098;2023-07-30T11:28:33;22.70;91.40
57282;DHT22;43129;52.628;10.098;2023-07-30T11:31:04;22.10;92.60
57282;DHT22;43129;52.628;10.098;2023-07-30T11:33:32;22.10;93.10
57282;DHT22;43129;52.628;10.098;2023-07-30T11:36:03;21.70;94.10
57282;DHT22;43129;52.628;10.098;2023-07-30T11:38:30;21.50;94.80
57282;DHT22;43129;52.628;10.098;2023-07-30T11:40:56;21.50;95.10
57282;DHT22;43129;52.628;10.098;2023-07-30T11:43:22;21.50;95.70
57282;DHT22;43129;52.628;10.098;2023-07-30T11:45:49;22.10;94.00
57282;DHT22;43129;52.628;10.098;2023-07-30T11:48:15;23.20;91.20
57282;DHT22;43129;52.628;10.098;2023-07-30T11:50:48;23.40;89.10
57282;DHT22;43129;52.628;10.098;2023-07-30T11:53:19;23.10;89.30
57282;DHT22;43129;52.628;10.098;2023-07-30T11:55:45;23.50;89.70
57282;DHT22;43129;52.628;10.098;2023-07-30T11:58:12;23.40;89.00
57282;DHT22;43129;52.628;10.098;2023-07-30T12:00:40;23.00;89.00
57282;DHT22;43129;52.628;10.098;2023-07-30T12:03:10;23.70;87.30
57282;DHT22;43129;52.628;10.098;2023-07-30T12:05:38;24.00;82.80
57282;DHT22;43129;52.628;10.098;2023-07-30T12:08:13;24.30;79.90
57282;DHT22;43129;52.628;10.098;2023-07-30T12:10:43;24.50;79.30
57282;DHT22;43129;52.628;10.098;2023-07-30T12:15:39;24.90;75.30
57282;DHT22;43129;52.628;10.098;2023-07-30T12:18:04;24.20;77.20
57282;DHT22;43129;52.628;10.098;2023-07-30T12:20:30;24.30;76.60
57282;DHT22;43129;52.628;10.098;2023-07-30T12:22:55;24.20;77.90
57282;DHT22;43129;52.628;10.098;2023-07-30T12:25:24;25.10;74.30
57282;DHT22;43129;52.628;10.098;2023-07-30T12:27:49;25.30;68.70
57282;DHT22;43129;52.628;10.098;2023-07-30T12:30:15;25.70;67.20
57282;DHT22;43129;52.628;10.098;2023-07-30T12:32:41;25.40;66.10
57282;DHT22;43129;52.628;10.098;2023-07-30T12:35:06;24.80;68.40
57282;DHT22;43129;52.628;10.098;2023-07-30T12:37:32;24.70;70.30
57282;DHT22;43129;52.628;10.098;2023-07-30T12:40:00;24.40;71.80
57282;DHT22;43129;52.628;10.098;2023-07-30T12:42:26;24.90;71.00
57282;DHT22;43129;52.628;10.098;2023-07-30T12:44:54;24.90;70.00
57282;DHT22;43129;52.628;10.098;2023-07-30T12:47:22;25.30;67.50
57282;DHT22;43129;52.628;10.098;2023-07-30T12:49:47;25.20;66.90
57282;DHT22;43129;52.628;10.098;2023-07-30T12:52:13;25.40;65.80
57282;DHT22;43129;52.628;10.098;2023-07-30T12:54:38;25.10;63.70
57282;DHT22;43129;52.628;10.098;2023-07-30T12:57:04;25.60;63.70
57282;DHT22;43129;52.628;10.098;2023-07-30T12:59:35;25.90;63.00
57282;DHT22;43129;52.628;10.098;2023-07-30T13:02:01;25.70;63.30
57282;DHT22;43129;52.628;10.098;2023-07-30T13:04:27;25.70;61.50
57282;DHT22;43129;52.628;10.098;2023-07-30T13:06:55;25.80;62.90
57282;DHT22;43129;52.628;10.098;2023-07-30T13:09:21;25.60;60.70
57282;DHT22;43129;52.628;10.098;2023-07-30T13:11:51;25.30;60.80
57282;DHT22;43129;52.628;10.098;2023-07-30T13:14:16;26.10;58.70
57282;DHT22;43129;52.628;10.098;2023-07-30T13:16:42;25.80;59.30
57282;DHT22;43129;52.628;10.098;2023-07-30T13:19:08;26.50;57.60
57282;DHT22;43129;52.628;10.098;2023-07-30T13:21:37;26.20;56.50
57282;DHT22;43129;52.628;10.098;2023-07-30T13:24:03;26.50;57.10
57282;DHT22;43129;52.628;10.098;2023-07-30T13:26:28;26.40;56.70
57282;DHT22;43129;52.628;10.098;2023-07-30T13:28:59;26.20;55.50
57282;DHT22;43129;52.628;10.098;2023-07-30T13:31:24;25.90;56.60
57282;DHT22;43129;52.628;10.098;2023-07-30T13:33:50;25.80;57.50
57282;DHT22;43129;52.628;10.098;2023-07-30T13:36:17;26.00;56.50
57282;DHT22;43129;52.628;10.098;2023-07-30T13:38:47;26.50;54.40
57282;DHT22;43129;52.628;10.098;2023-07-30T13:41:15;26.40;55.20
57282;DHT22;43129;52.628;10.098;2023-07-30T13:43:40;26.40;52.80
57282;DHT22;43129;52.628;10.098;2023-07-30T13:46:06;26.50;51.90
57282;DHT22;43129;52.628;10.098;2023-07-30T13:48:32;26.10;53.10
57282;DHT22;43129;52.628;10.098;2023-07-30T13:51:02;25.60;54.70
57282;DHT22;43129;52.628;10.098;2023-07-30T13:53:28;24.80;57.40
57282;DHT22;43129;52.628;10.098;2023-07-30T13:55:54;24.60;57.30
57282;DHT22;43129;52.628;10.098;2023-07-30T13:58:22;24.50;58.00
57282;DHT22;43129;52.628;10.098;2023-07-30T14:00:53;24.60;58.40
57282;DHT22;43129;52.628;10.098;2023-07-30T14:03:18;24.70;58.40
57282;DHT22;43129;52.628;10.098;2023-07-30T14:05:44;25.20;57.90
57282;DHT22;43129;52.628;10.098;2023-07-30T14:08:12;25.10;57.50
57282;DHT22;43129;52.628;10.098;2023-07-30T14:10:38;24.60;58.00
57282;DHT22;43129;52.628;10.098;2023-07-30T14:13:03;24.10;60.30
57282;DHT22;43129;52.628;10.098;2023-07-30T14:15:31;23.60;60.70
57282;DHT22;43129;52.628;10.098;2023-07-30T14:17:59;23.10;64.40
57282;DHT22;43129;52.628;10.098;2023-07-30T14:20:25;22.80;66.50
57282;DHT22;43129;52.628;10.098;2023-07-30T14:22:51;22.60;67.80
57282;DHT22;43129;52.628;10.098;2023-07-30T14:25:17;22.30;70.00
57282;DHT22;43129;52.628;10.098;2023-07-30T14:27:45;22.10;71.90
57282;DHT22;43129;52.628;10.098;2023-07-30T14:30:11;22.00;72.10
57282;DHT22;43129;52.628;10.098;2023-07-30T14:32:37;22.10;70.50
57282;DHT22;43129;52.628;10.098;2023-07-30T14:35:02;22.10;70.30
57282;DHT22;43129;52.628;10.098;2023-07-30T14:37:33;22.90;68.50
57282;DHT22;43129;52.628;10.098;2023-07-30T14:39:58;23.70;64.70
57282;DHT22;43129;52.628;10.098;2023-07-30T14:42:24;23.70;63.10
57282;DHT22;43129;52.628;10.098;2023-07-30T14:44:50;23.50;64.70
57282;DHT22;43129;52.628;10.098;2023-07-30T14:47:17;23.10;64.30
57282;DHT22;43129;52.628;10.098;2023-07-30T14:49:47;22.80;66.50
57282;DHT22;43129;52.628;10.098;2023-07-30T14:52:13;22.90;70.70
57282;DHT22;43129;52.628;10.098;2023-07-30T14:54:41;22.40;75.40
57282;DHT22;43129;52.628;10.098;2023-07-30T14:57:11;22.30;78.50
57282;DHT22;43129;52.628;10.098;2023-07-30T14:59:39;21.80;86.20
57282;DHT22;43129;52.628;10.098;2023-07-30T15:02:07;21.50;90.50
57282;DHT22;43129;52.628;10.098;2023-07-30T15:04:35;21.20;93.70
57282;DHT22;43129;52.628;10.098;2023-07-30T15:07:01;21.10;94.40
57282;DHT22;43129;52.628;10.098;2023-07-30T15:09:27;21.50;94.40
57282;DHT22;43129;52.628;10.098;2023-07-30T15:11:59;22.20;93.20
57282;DHT22;43129;52.628;10.098;2023-07-30T15:14:25;22.50;91.70
57282;DHT22;43129;52.628;10.098;2023-07-30T15:16:50;22.40;91.70
57282;DHT22;43129;52.628;10.098;2023-07-30T15:19:16;22.40;91.40
57282;DHT22;43129;52.628;10.098;2023-07-30T15:21:44;22.10;92.10
57282;DHT22;43129;52.628;10.098;2023-07-30T15:24:12;21.80;93.40
57282;DHT22;43129;52.628;10.098;2023-07-30T15:26:37;21.70;93.60